createdAt,value
2023-11-05T00:00:18.132Z,59.22
2023-11-05T00:01:18.338Z,59.42
2023-11-05T00:02:18.436Z,59.12
2023-11-05T00:03:18.766Z,59.42
2023-11-05T00:04:18.837Z,59.63
2023-11-05T00:05:19.036Z,59.53
2023-11-05T00:06:19.204Z,59.45
2023-11-05T00:07:19.367Z,59.56
2023-11-05T00:08:19.535Z,59.56
2023-11-05T00:09:19.731Z,59.66
2023-11-05T00:10:19.930Z,59.66
2023-11-05T00:11:20.133Z,59.56
2023-11-05T00:12:20.305Z,59.76
2023-11-05T00:13:20.521Z,59.56
2023-11-05T00:14:20.687Z,59.76
2023-11-05T00:15:20.914Z,59.86
2023-11-05T00:16:21.130Z,59.96
2023-11-05T00:17:21.240Z,59.96
2023-11-05T00:18:21.476Z,59.96
2023-11-05T00:19:21.683Z,59.96
2023-11-05T00:20:21.853Z,60.16
2023-11-05T00:21:22.015Z,59.99
2023-11-05T00:22:22.240Z,59.99
2023-11-05T00:23:22.407Z,60.09
2023-11-05T00:24:22.584Z,60.09
2023-11-05T00:25:22.876Z,60.09
2023-11-05T00:26:22.963Z,60.19
2023-11-05T00:27:23.127Z,60.29
2023-11-05T00:28:23.379Z,60.39
2023-11-05T00:29:23.514Z,60.19
2023-11-05T00:30:23.715Z,60.29
2023-11-05T00:31:23.981Z,60.39
2023-11-05T00:32:24.112Z,60.39
2023-11-05T00:33:24.371Z,60.39
2023-11-05T00:34:24.534Z,60.39
2023-11-05T00:35:24.713Z,60.52
2023-11-05T00:36:24.864Z,60.52
2023-11-05T00:37:25.020Z,60.72
2023-11-05T00:38:25.197Z,60.62
2023-11-05T00:39:25.393Z,60.62
2023-11-05T00:40:25.633Z,60.52
2023-11-05T00:41:25.759Z,60.62
2023-11-05T00:42:25.950Z,60.72
2023-11-05T00:43:26.145Z,60.72
2023-11-05T00:44:26.291Z,60.72
2023-11-05T00:45:27.430Z,60.82
2023-11-05T00:46:26.664Z,60.82
2023-11-05T00:47:26.834Z,60.93
2023-11-05T00:48:27.021Z,60.82
2023-11-05T00:49:27.362Z,60.93
2023-11-05T00:50:27.436Z,60.93
2023-11-05T00:51:27.612Z,60.93
2023-11-05T00:52:27.846Z,60.93
2023-11-05T00:53:28.026Z,60.93
2023-11-05T00:54:28.210Z,61.03
2023-11-05T00:55:28.440Z,61.03
2023-11-05T00:56:28.571Z,61.13
2023-11-05T00:57:28.762Z,61.13
2023-11-05T00:58:28.969Z,61.13
2023-11-05T00:59:30.067Z,61.13
2023-11-05T01:00:29.343Z,61.23
2023-11-05T01:01:29.526Z,61.13
2023-11-05T01:02:29.705Z,61.23
2023-11-05T01:03:29.988Z,61.33
2023-11-05T01:04:30.126Z,61.33
2023-11-05T01:05:30.226Z,61.33
2023-11-05T01:06:30.385Z,61.43
2023-11-05T01:07:30.620Z,61.43
2023-11-05T01:08:31.730Z,61.43
2023-11-05T01:09:30.938Z,61.46
2023-11-05T01:10:31.215Z,61.53
2023-11-05T01:11:31.287Z,61.53
2023-11-05T01:12:31.486Z,61.66
2023-11-05T01:13:31.707Z,61.63
2023-11-05T01:14:31.855Z,61.63
2023-11-05T01:15:32.019Z,61.66
2023-11-05T01:16:32.221Z,61.66
2023-11-05T01:17:32.418Z,61.76
2023-11-05T01:18:32.616Z,61.76
2023-11-05T01:19:32.824Z,61.73
2023-11-05T01:20:32.985Z,61.87
2023-11-05T01:21:33.119Z,61.87
2023-11-05T01:22:33.365Z,61.87
2023-11-05T01:23:33.505Z,61.96
2023-11-05T01:24:33.693Z,62.07
2023-11-05T01:25:34.011Z,62.07
2023-11-05T01:26:34.089Z,62.07
2023-11-05T01:27:34.277Z,62.16
2023-11-05T01:28:34.459Z,62.16
2023-11-05T01:29:34.670Z,62.16
2023-11-05T01:30:34.834Z,62.16
2023-11-05T01:31:35.032Z,62.16
2023-11-05T01:32:35.245Z,62.16
2023-11-05T01:33:35.421Z,62.27
2023-11-05T01:34:35.650Z,62.27
2023-11-05T01:35:35.756Z,62.27
2023-11-05T01:36:35.926Z,62.37
2023-11-05T01:37:36.176Z,62.47
2023-11-05T01:38:36.280Z,62.47
2023-11-05T01:39:36.462Z,62.47
2023-11-05T01:40:36.777Z,62.47
2023-11-05T01:41:37.846Z,62.57
2023-11-05T01:42:37.034Z,62.57
2023-11-05T01:43:37.275Z,62.57
2023-11-05T01:44:37.396Z,62.57
2023-11-05T01:45:37.609Z,62.67
2023-11-05T01:46:38.860Z,62.77
2023-11-05T01:47:37.963Z,62.77
2023-11-05T01:48:38.186Z,62.77
2023-11-05T01:49:38.360Z,62.87
2023-11-05T01:50:38.498Z,62.98
2023-11-05T01:51:38.691Z,63.08
2023-11-05T01:52:38.930Z,63.08
2023-11-05T01:53:39.046Z,63.08
2023-11-05T01:54:39.225Z,63.18
2023-11-05T01:55:39.437Z,63.18
2023-11-05T01:56:39.595Z,63.48
2023-11-05T01:57:39.751Z,63.48
2023-11-05T01:58:39.970Z,63.78
2023-11-05T01:59:40.163Z,63.48
2023-11-05T02:00:40.306Z,63.89
2023-11-05T02:01:40.536Z,63.68
2023-11-05T02:02:40.742Z,63.78
2023-11-05T02:03:40.885Z,63.78
2023-11-05T02:04:41.130Z,63.78
2023-11-05T02:05:41.357Z,64.09
2023-11-05T02:06:41.416Z,63.99
2023-11-05T02:07:41.647Z,64.29
2023-11-05T02:08:41.795Z,64.70
2023-11-05T02:09:41.982Z,64.49
2023-11-05T02:10:42.224Z,65.00
2023-11-05T02:11:42.399Z,64.70
2023-11-05T02:12:42.555Z,65.10
2023-11-05T02:13:42.746Z,65.20
2023-11-05T02:14:42.944Z,64.83
2023-11-05T02:15:43.148Z,65.40
2023-11-05T02:16:43.404Z,65.61
2023-11-05T02:17:43.585Z,65.43
2023-11-05T02:18:43.769Z,65.53
2023-11-05T02:19:43.908Z,65.53
2023-11-05T02:20:44.122Z,65.53
2023-11-05T02:21:44.808Z,65.94
2023-11-05T02:22:44.465Z,66.35
2023-11-05T02:23:44.648Z,66.75
2023-11-05T02:24:44.841Z,66.44
2023-11-05T02:25:45.062Z,66.24
2023-11-05T02:26:45.252Z,66.55
2023-11-05T02:27:45.475Z,66.95
2023-11-05T02:28:45.613Z,66.64
2023-11-05T02:29:45.811Z,67.05
2023-11-05T02:30:45.988Z,66.75
2023-11-05T02:31:46.180Z,67.35
2023-11-05T02:32:46.489Z,67.35
2023-11-05T02:33:46.614Z,67.66
2023-11-05T02:34:46.749Z,67.59
2023-11-05T02:35:46.906Z,67.39
2023-11-05T02:36:47.071Z,67.29
2023-11-05T02:37:47.764Z,68.10
2023-11-05T02:38:47.435Z,67.89
2023-11-05T02:39:47.631Z,68.30
2023-11-05T02:40:47.831Z,67.69
2023-11-05T02:41:48.036Z,67.79
2023-11-05T02:42:49.166Z,68.30
2023-11-05T02:43:48.414Z,68.50
2023-11-05T02:44:48.561Z,68.19
2023-11-05T02:45:48.752Z,68.50
2023-11-05T02:46:48.941Z,68.70
2023-11-05T02:47:49.347Z,68.60
2023-11-05T02:48:49.390Z,68.60
2023-11-05T02:49:49.517Z,68.60
2023-11-05T02:50:49.705Z,68.50
2023-11-05T02:51:49.906Z,68.80
2023-11-05T02:52:50.582Z,68.70
2023-11-05T02:53:50.276Z,68.90
2023-11-05T02:54:50.468Z,69.14
2023-11-05T02:55:50.658Z,69.31
2023-11-05T02:56:50.860Z,69.41
2023-11-05T02:57:51.034Z,69.24
2023-11-05T02:58:51.219Z,69.04
2023-11-05T02:59:51.455Z,69.14
2023-11-05T03:00:51.615Z,69.04
2023-11-05T03:01:51.785Z,69.04
2023-11-05T03:02:52.032Z,69.24
2023-11-05T03:03:52.147Z,69.14
2023-11-05T03:04:52.404Z,69.24
2023-11-05T03:05:52.505Z,69.24
2023-11-05T03:06:52.701Z,69.24
2023-11-05T03:07:52.903Z,69.24
2023-11-05T03:08:53.087Z,69.24
2023-11-05T03:09:53.273Z,69.34
2023-11-05T03:10:53.460Z,69.54
2023-11-05T03:11:53.678Z,69.44
2023-11-05T03:12:53.833Z,69.74
2023-11-05T03:13:54.027Z,69.54
2023-11-05T03:14:54.240Z,69.54
2023-11-05T03:15:54.383Z,69.54
2023-11-05T03:16:54.600Z,69.85
2023-11-05T03:17:54.794Z,69.54
2023-11-05T03:18:54.946Z,69.95
2023-11-05T03:19:55.098Z,69.74
2023-11-05T03:20:55.295Z,69.85
2023-11-05T03:21:55.483Z,70.05
2023-11-05T03:22:55.698Z,70.05
2023-11-05T03:23:55.860Z,70.05
2023-11-05T03:24:56.013Z,69.85
2023-11-05T03:25:56.200Z,69.85
2023-11-05T03:26:56.396Z,70.15
2023-11-05T03:27:56.637Z,70.05
2023-11-05T03:28:56.767Z,70.15
2023-11-05T03:29:56.956Z,69.95
2023-11-05T03:30:57.166Z,70.05
2023-11-05T03:31:57.364Z,69.95
2023-11-05T03:32:57.659Z,69.85
2023-11-05T03:33:57.736Z,69.85
2023-11-05T03:34:57.909Z,69.85
2023-11-05T03:35:58.070Z,69.98
2023-11-05T03:36:58.265Z,70.18
2023-11-05T03:37:58.438Z,70.15
2023-11-05T03:38:58.629Z,70.25
2023-11-05T03:39:58.853Z,70.05
2023-11-05T03:40:59.479Z,70.08
2023-11-05T03:41:59.169Z,70.39
2023-11-05T03:42:59.397Z,70.18
2023-11-05T03:43:59.549Z,70.39
2023-11-05T03:44:59.808Z,70.29
2023-11-05T03:45:59.918Z,70.29
2023-11-05T03:47:00.120Z,70.39
2023-11-05T03:48:00.364Z,70.39
2023-11-05T03:49:00.466Z,70.49
2023-11-05T03:50:00.646Z,70.39
2023-11-05T03:51:00.832Z,70.49
2023-11-05T03:52:01.018Z,70.59
2023-11-05T03:53:01.197Z,70.59
2023-11-05T03:54:01.385Z,70.49
2023-11-05T03:55:01.564Z,70.49
2023-11-05T03:56:01.821Z,70.69
2023-11-05T03:57:01.935Z,70.69
2023-11-05T03:58:02.138Z,70.79
2023-11-05T03:59:02.333Z,70.69
2023-11-05T04:00:02.495Z,70.89
2023-11-05T04:01:02.662Z,70.79
2023-11-05T04:02:02.862Z,70.69
2023-11-05T04:03:03.093Z,70.89
2023-11-05T04:04:03.271Z,70.79
2023-11-05T04:05:03.421Z,70.89
2023-11-05T04:06:03.587Z,71.00
2023-11-05T04:07:03.794Z,70.89
2023-11-05T04:08:03.956Z,70.89
2023-11-05T04:09:04.179Z,70.89
2023-11-05T04:10:04.336Z,70.79
2023-11-05T04:11:04.521Z,70.89
2023-11-05T04:12:04.696Z,71.09
2023-11-05T04:13:04.916Z,70.89
2023-11-05T04:14:05.081Z,71.09
2023-11-05T04:15:05.233Z,71.00
2023-11-05T04:16:05.478Z,70.79
2023-11-05T04:17:05.599Z,71.00
2023-11-05T04:18:05.820Z,70.89
2023-11-05T04:19:06.011Z,70.89
2023-11-05T04:20:06.150Z,70.89
2023-11-05T04:21:06.323Z,71.00
2023-11-05T04:22:06.547Z,70.89
2023-11-05T04:23:06.677Z,71.09
2023-11-05T04:24:06.890Z,71.00
2023-11-05T04:25:07.055Z,71.00
2023-11-05T04:26:07.235Z,71.00
2023-11-05T04:27:07.435Z,71.09
2023-11-05T04:28:07.647Z,71.20
2023-11-05T04:29:07.848Z,71.20
2023-11-05T04:30:08.015Z,71.20
2023-11-05T04:31:08.219Z,71.20
2023-11-05T04:32:08.375Z,71.23
2023-11-05T04:33:08.574Z,71.23
2023-11-05T04:34:08.824Z,71.09
2023-11-05T04:35:09.033Z,71.13
2023-11-05T04:36:09.132Z,71.23
2023-11-05T04:37:09.346Z,71.13
2023-11-05T04:38:09.526Z,71.33
2023-11-05T04:39:09.740Z,71.23
2023-11-05T04:40:09.868Z,71.33
2023-11-05T04:41:10.057Z,71.33
2023-11-05T04:42:10.248Z,71.23
2023-11-05T04:43:10.456Z,71.33
2023-11-05T04:44:10.649Z,71.33
2023-11-05T04:45:10.815Z,71.33
2023-11-05T04:46:11.026Z,71.44
2023-11-05T04:47:11.191Z,71.64
2023-11-05T04:48:11.445Z,71.44
2023-11-05T04:49:11.634Z,71.44
2023-11-05T04:50:12.763Z,71.64
2023-11-05T04:51:11.938Z,71.53
2023-11-05T04:52:12.143Z,71.64
2023-11-05T04:53:12.320Z,71.64
2023-11-05T04:54:12.525Z,71.64
2023-11-05T04:55:12.728Z,71.64
2023-11-05T04:56:12.854Z,71.73
2023-11-05T04:57:13.046Z,71.73
2023-11-05T04:58:13.262Z,71.64
2023-11-05T04:59:13.426Z,71.64
2023-11-05T05:00:13.633Z,71.84
2023-11-05T05:01:13.842Z,71.73
2023-11-05T05:02:14.013Z,71.77
2023-11-05T05:03:14.271Z,71.88
2023-11-05T05:04:14.481Z,71.88
2023-11-05T05:05:14.650Z,71.84
2023-11-05T05:06:14.762Z,71.88
2023-11-05T05:07:14.980Z,71.88
2023-11-05T05:08:15.158Z,71.88
2023-11-05T05:09:15.336Z,71.88
2023-11-05T05:10:15.533Z,71.97
2023-11-05T05:11:15.703Z,71.88
2023-11-05T05:12:15.913Z,71.97
2023-11-05T05:13:17.141Z,71.88
2023-11-05T05:14:16.280Z,71.97
2023-11-05T05:15:16.466Z,71.97
2023-11-05T05:16:16.670Z,71.88
2023-11-05T05:17:16.857Z,71.97
2023-11-05T05:18:17.105Z,71.97
2023-11-05T05:19:17.248Z,71.97
2023-11-05T05:20:17.447Z,71.97
2023-11-05T05:21:17.599Z,71.97
2023-11-05T05:22:17.869Z,71.97
2023-11-05T05:23:18.018Z,72.08
2023-11-05T05:24:18.177Z,71.97
2023-11-05T05:25:18.346Z,71.97
2023-11-05T05:26:20.291Z,71.97
2023-11-05T05:27:18.728Z,71.97
2023-11-05T05:28:18.956Z,72.08
2023-11-05T05:29:19.101Z,72.08
2023-11-05T05:30:19.316Z,71.97
2023-11-05T05:31:19.508Z,72.08
2023-11-05T05:32:19.706Z,72.08
2023-11-05T05:33:19.934Z,72.08
2023-11-05T05:34:20.046Z,72.08
2023-11-05T05:35:20.230Z,72.08
2023-11-05T05:36:20.429Z,72.08
2023-11-05T05:37:20.645Z,72.11
2023-11-05T05:38:20.845Z,72.11
2023-11-05T05:39:20.997Z,72.11
2023-11-05T05:40:21.172Z,72.11
2023-11-05T05:41:21.330Z,72.11
2023-11-05T05:42:21.525Z,72.21
2023-11-05T05:43:21.758Z,72.11
2023-11-05T05:44:23.953Z,72.11
2023-11-05T05:45:22.106Z,72.11
2023-11-05T05:46:22.267Z,72.11
2023-11-05T05:47:22.444Z,72.11
2023-11-05T05:48:22.679Z,72.11
2023-11-05T05:49:22.852Z,72.21
2023-11-05T05:50:23.021Z,72.11
2023-11-05T05:51:23.209Z,72.11
2023-11-05T05:52:23.454Z,72.11
2023-11-05T05:53:23.583Z,72.11
2023-11-05T05:54:23.742Z,72.11
2023-11-05T05:55:23.949Z,72.11
2023-11-05T05:56:24.117Z,72.11
2023-11-05T05:57:24.315Z,72.11
2023-11-05T05:58:24.527Z,72.11
2023-11-05T05:59:24.691Z,72.11
2023-11-05T06:00:24.872Z,72.11
2023-11-05T06:01:25.123Z,72.01
2023-11-05T06:02:25.204Z,72.11
2023-11-05T06:03:25.403Z,72.01
2023-11-05T06:04:25.587Z,72.11
2023-11-05T06:05:25.797Z,72.11
2023-11-05T06:06:26.122Z,72.01
2023-11-05T06:07:26.165Z,72.11
2023-11-05T06:08:26.316Z,72.11
2023-11-05T06:09:26.511Z,72.11
2023-11-05T06:10:26.726Z,72.01
2023-11-05T06:11:26.840Z,72.01
2023-11-05T06:12:27.030Z,72.01
2023-11-05T06:13:27.224Z,72.01
2023-11-05T06:14:36.323Z,72.01
2023-11-05T06:15:28.602Z,72.01
2023-11-05T06:16:27.737Z,72.01
2023-11-05T06:17:27.907Z,72.11
2023-11-05T06:18:28.126Z,72.01
2023-11-05T06:19:28.243Z,72.01
2023-11-05T06:20:28.438Z,72.01
2023-11-05T06:21:28.599Z,72.01
2023-11-05T06:22:28.750Z,72.01
2023-11-05T06:23:28.952Z,72.01
2023-11-05T06:24:29.117Z,72.01
2023-11-05T06:25:29.332Z,72.01
2023-11-05T06:26:29.493Z,72.01
2023-11-05T06:27:29.691Z,72.01
2023-11-05T06:28:29.954Z,71.91
2023-11-05T06:29:30.034Z,71.91
2023-11-05T06:30:30.234Z,71.91
2023-11-05T06:31:30.434Z,71.91
2023-11-05T06:32:30.673Z,71.91
2023-11-05T06:33:30.777Z,71.91
2023-11-05T06:34:31.041Z,71.80
2023-11-05T06:35:31.106Z,71.80
2023-11-05T06:36:31.321Z,71.70
2023-11-05T06:37:31.494Z,71.70
2023-11-05T06:38:31.658Z,71.70
2023-11-05T06:39:31.857Z,71.67
2023-11-05T06:40:32.024Z,71.67
2023-11-05T06:41:32.175Z,71.57
2023-11-05T06:42:32.360Z,71.57
2023-11-05T06:43:32.553Z,71.57
2023-11-05T06:44:32.693Z,71.47
2023-11-05T06:45:32.870Z,71.37
2023-11-05T06:46:33.088Z,71.37
2023-11-05T06:47:33.268Z,71.37
2023-11-05T06:48:33.574Z,71.26
2023-11-05T06:49:33.696Z,71.26
2023-11-05T06:50:33.821Z,71.16
2023-11-05T06:51:33.980Z,71.16
2023-11-05T06:52:34.667Z,71.13
2023-11-05T06:53:34.353Z,71.16
2023-11-05T06:54:34.523Z,71.13
2023-11-05T06:55:34.751Z,71.03
2023-11-05T06:56:34.874Z,70.93
2023-11-05T06:57:35.047Z,70.93
2023-11-05T06:58:35.285Z,70.93
2023-11-05T06:59:35.381Z,70.72
2023-11-05T07:00:35.582Z,70.72
2023-11-05T07:01:35.794Z,70.62
2023-11-05T07:02:35.941Z,70.62
2023-11-05T07:03:36.141Z,70.49
2023-11-05T07:04:36.348Z,70.49
2023-11-05T07:05:36.462Z,70.39
2023-11-05T07:06:36.618Z,70.39
2023-11-05T07:07:36.886Z,70.29
2023-11-05T07:08:37.001Z,70.18
2023-11-05T07:09:37.183Z,70.18
2023-11-05T07:10:37.457Z,70.18
2023-11-05T07:11:37.519Z,70.18
2023-11-05T07:12:37.708Z,69.98
2023-11-05T07:13:37.931Z,70.08
2023-11-05T07:14:38.109Z,70.08
2023-11-05T07:15:38.251Z,70.08
2023-11-05T07:16:38.425Z,69.98
2023-11-05T07:17:38.661Z,69.98
2023-11-05T07:18:38.821Z,69.95
2023-11-05T07:19:39.024Z,69.85
2023-11-05T07:20:39.248Z,69.85
2023-11-05T07:21:39.328Z,69.74
2023-11-05T07:22:42.139Z,69.74
2023-11-05T07:23:39.677Z,69.74
2023-11-05T07:24:39.876Z,69.74
2023-11-05T07:25:40.045Z,69.65
2023-11-05T07:26:40.205Z,69.54
2023-11-05T07:27:40.422Z,69.54
2023-11-05T07:28:40.634Z,69.54
2023-11-05T07:29:40.766Z,69.44
2023-11-05T07:30:40.966Z,69.44
2023-11-05T07:31:41.158Z,69.34
2023-11-05T07:32:42.286Z,69.34
2023-11-05T07:33:41.509Z,69.21
2023-11-05T07:34:41.757Z,69.21
2023-11-05T07:35:41.869Z,69.10
2023-11-05T07:36:42.027Z,69.10
2023-11-05T07:37:42.289Z,69.10
2023-11-05T07:38:42.373Z,69.01
2023-11-05T07:39:42.593Z,69.10
2023-11-05T07:40:42.810Z,69.10
2023-11-05T07:41:43.430Z,69.71
2023-11-05T07:42:43.125Z,70.12
2023-11-05T07:43:43.323Z,70.32
2023-11-05T07:44:43.501Z,69.98
2023-11-05T07:45:43.662Z,69.78
2023-11-05T07:46:43.893Z,69.78
2023-11-05T07:47:44.104Z,69.38
2023-11-05T07:48:44.281Z,69.38
2023-11-05T07:49:44.440Z,69.27
2023-11-05T07:50:44.623Z,68.94
2023-11-05T07:51:44.790Z,68.84
2023-11-05T07:52:45.041Z,68.54
2023-11-05T07:53:45.131Z,68.33
2023-11-05T07:54:45.301Z,68.43
2023-11-05T07:55:45.530Z,68.10
2023-11-05T07:56:45.664Z,67.80
2023-11-05T07:57:45.831Z,67.49
2023-11-05T07:58:46.202Z,67.80
2023-11-05T07:59:46.170Z,67.66
2023-11-05T08:00:46.371Z,67.66
2023-11-05T08:01:46.564Z,67.36
2023-11-05T08:02:46.794Z,67.26
2023-11-05T08:03:46.997Z,67.06
2023-11-05T08:04:47.127Z,66.86
2023-11-05T08:05:47.255Z,66.82
2023-11-05T08:06:47.418Z,66.75
2023-11-05T08:07:47.642Z,66.93
2023-11-05T08:08:47.792Z,66.93
2023-11-05T08:09:47.939Z,66.93
2023-11-05T08:10:48.248Z,67.02
2023-11-05T08:11:48.323Z,66.93
2023-11-05T08:12:48.510Z,66.82
2023-11-05T08:13:48.724Z,66.82
2023-11-05T08:14:55.880Z,66.72
2023-11-05T08:15:49.094Z,66.39
2023-11-05T08:16:49.254Z,66.32
2023-11-05T08:17:49.557Z,66.32
2023-11-05T08:18:49.599Z,66.29
2023-11-05T08:19:49.826Z,66.29
2023-11-05T08:20:50.001Z,66.22
2023-11-05T08:21:50.163Z,66.19
2023-11-05T08:22:50.842Z,66.19
2023-11-05T08:23:50.491Z,66.08
2023-11-05T08:24:50.679Z,66.08
2023-11-05T08:25:50.920Z,65.99
2023-11-05T08:26:51.044Z,65.99
2023-11-05T08:27:51.217Z,65.88
2023-11-05T08:28:51.455Z,65.58
2023-11-05T08:29:51.560Z,65.58
2023-11-05T08:30:51.729Z,65.65
2023-11-05T08:31:51.974Z,65.45
2023-11-05T08:32:52.144Z,65.45
2023-11-05T08:33:52.349Z,65.45
2023-11-05T08:34:52.530Z,65.35
2023-11-05T08:35:52.789Z,65.15
2023-11-05T08:36:52.921Z,65.25
2023-11-05T08:37:53.041Z,65.15
2023-11-05T08:38:53.262Z,65.15
2023-11-05T08:39:53.395Z,65.25
2023-11-05T08:40:53.620Z,65.85
2023-11-05T08:41:53.765Z,66.56
2023-11-05T08:42:53.915Z,66.53
2023-11-05T08:43:54.109Z,66.42
2023-11-05T08:44:54.259Z,66.22
2023-11-05T08:45:54.431Z,65.62
2023-11-05T08:46:54.637Z,65.72
2023-11-05T08:47:54.790Z,65.52
2023-11-05T08:48:55.030Z,65.42
2023-11-05T08:49:55.138Z,65.72
2023-11-05T08:50:55.309Z,65.72
2023-11-05T08:51:55.502Z,66.02
2023-11-05T08:52:55.643Z,65.62
2023-11-05T08:53:55.905Z,65.29
2023-11-05T08:54:56.037Z,65.19
2023-11-05T08:55:56.247Z,65.09
2023-11-05T08:56:56.393Z,65.19
2023-11-05T08:57:56.570Z,64.86
2023-11-05T08:58:56.737Z,64.75
2023-11-05T08:59:56.903Z,64.75
2023-11-05T09:00:57.451Z,64.65
2023-11-05T09:01:57.337Z,64.35
2023-11-05T09:02:57.518Z,64.25
2023-11-05T09:03:57.647Z,63.82
2023-11-05T09:04:57.843Z,63.75
2023-11-05T09:05:58.004Z,63.82
2023-11-05T09:07:00.173Z,63.71
2023-11-05T09:07:58.365Z,63.42
2023-11-05T09:08:58.599Z,63.51
2023-11-05T09:09:58.732Z,63.62
2023-11-05T09:10:58.924Z,63.71
2023-11-05T09:11:59.085Z,63.39
2023-11-05T09:12:59.248Z,62.98
2023-11-05T09:13:59.445Z,62.98
2023-11-05T09:14:59.585Z,62.98
2023-11-05T09:15:59.781Z,63.08
2023-11-05T09:16:59.976Z,62.68
2023-11-05T09:18:00.164Z,62.58
2023-11-05T09:19:00.374Z,62.58
2023-11-05T09:20:00.486Z,62.78
2023-11-05T09:21:00.664Z,62.58
2023-11-05T09:22:00.861Z,62.78
2023-11-05T09:23:01.121Z,62.58
2023-11-05T09:24:01.192Z,62.38
2023-11-05T09:25:01.372Z,62.58
2023-11-05T09:26:01.542Z,62.48
2023-11-05T09:27:01.742Z,62.78
2023-11-05T09:28:01.940Z,62.48
2023-11-05T09:29:02.067Z,62.58
2023-11-05T09:30:02.252Z,62.35
2023-11-05T09:31:02.420Z,62.05
2023-11-05T09:32:02.708Z,62.45
2023-11-05T09:33:02.870Z,62.35
2023-11-05T09:34:02.958Z,62.45
2023-11-05T09:35:03.130Z,62.45
2023-11-05T09:36:03.303Z,62.24
2023-11-05T09:37:03.553Z,62.65
2023-11-05T09:38:03.713Z,62.45
2023-11-05T09:39:03.832Z,62.35
2023-11-05T09:40:04.266Z,62.45
2023-11-05T09:41:04.188Z,62.75
2023-11-05T09:42:04.371Z,62.65
2023-11-05T09:43:04.521Z,62.75
2023-11-05T09:44:04.714Z,62.45
2023-11-05T09:45:04.914Z,62.55
2023-11-05T09:46:05.081Z,62.55
2023-11-05T09:47:05.275Z,62.75
2023-11-05T09:48:05.594Z,62.85
2023-11-05T09:49:05.634Z,62.95
2023-11-05T09:50:06.652Z,63.25
2023-11-05T09:51:05.974Z,63.05
2023-11-05T09:52:06.167Z,63.05
2023-11-05T09:53:06.355Z,63.18
2023-11-05T09:54:06.521Z,63.18
2023-11-05T09:55:06.692Z,63.18
2023-11-05T09:56:06.884Z,63.28
2023-11-05T09:57:07.058Z,63.28
2023-11-05T09:58:07.309Z,63.48
2023-11-05T09:59:07.453Z,63.59
2023-11-05T10:00:07.722Z,63.68
2023-11-05T10:01:08.800Z,63.68
2023-11-05T10:02:07.981Z,63.89
2023-11-05T10:03:08.326Z,63.89
2023-11-05T10:04:08.362Z,63.89
2023-11-05T10:05:08.564Z,64.09
2023-11-05T10:06:08.711Z,64.19
2023-11-05T10:07:12.275Z,64.19
2023-11-05T10:08:09.070Z,64.29
2023-11-05T10:09:09.264Z,64.29
2023-11-05T10:10:09.443Z,64.19
2023-11-05T10:11:09.611Z,64.29
2023-11-05T10:12:09.807Z,64.49
2023-11-05T10:13:09.975Z,64.52
2023-11-05T10:14:10.119Z,64.62
2023-11-05T10:15:10.305Z,64.62
2023-11-05T10:16:10.509Z,64.72
2023-11-05T10:17:10.682Z,64.82
2023-11-05T10:18:10.941Z,64.92
2023-11-05T10:19:12.458Z,64.92
2023-11-05T10:20:11.217Z,64.92
2023-11-05T10:21:11.413Z,64.92
2023-11-05T10:22:11.573Z,65.02
2023-11-05T10:23:11.772Z,65.12
2023-11-05T10:24:11.937Z,65.22
2023-11-05T10:25:12.103Z,65.22
2023-11-05T10:26:12.305Z,65.22
2023-11-05T10:27:12.480Z,65.33
2023-11-05T10:28:12.662Z,65.22
2023-11-05T10:29:12.827Z,65.22
2023-11-05T10:30:12.996Z,65.22
2023-11-05T10:31:13.167Z,65.33
2023-11-05T10:32:13.355Z,65.36
2023-11-05T10:33:13.567Z,65.42
2023-11-05T10:34:13.815Z,65.36
2023-11-05T10:35:13.905Z,65.42
2023-11-05T10:36:14.077Z,65.53
2023-11-05T10:37:14.266Z,66.94
2023-11-05T10:38:14.466Z,67.24
2023-11-05T10:39:14.618Z,67.44
2023-11-05T10:40:14.836Z,67.34
2023-11-05T10:41:15.024Z,67.24
2023-11-05T10:42:15.146Z,66.74
2023-11-05T10:43:15.395Z,66.83
2023-11-05T10:44:15.536Z,66.83
2023-11-05T10:45:15.675Z,66.94
2023-11-05T10:46:15.888Z,66.91
2023-11-05T10:47:16.039Z,66.60
2023-11-05T10:48:16.280Z,66.40
2023-11-05T10:49:16.414Z,66.50
2023-11-05T10:50:16.582Z,66.30
2023-11-05T10:51:16.774Z,66.37
2023-11-05T10:52:20.367Z,66.17
2023-11-05T10:53:18.197Z,66.17
2023-11-05T10:54:17.378Z,66.34
2023-11-05T10:55:17.518Z,65.94
2023-11-05T10:56:17.694Z,65.64
2023-11-05T10:57:17.873Z,65.30
2023-11-05T10:58:23.037Z,65.10
2023-11-05T10:59:19.262Z,65.00
2023-11-05T11:00:18.442Z,64.60
2023-11-05T11:01:18.655Z,64.57
2023-11-05T11:02:18.799Z,64.57
2023-11-05T11:03:19.125Z,64.37
2023-11-05T11:04:19.385Z,64.43
2023-11-05T11:05:19.494Z,63.73
2023-11-05T11:06:19.528Z,63.93
2023-11-05T11:07:19.746Z,64.01
2023-11-05T11:08:19.909Z,63.60
2023-11-05T11:09:20.089Z,63.40
2023-11-05T11:10:20.270Z,63.31
2023-11-05T11:11:20.455Z,63.31
2023-11-05T11:12:20.614Z,63.10
2023-11-05T11:13:20.821Z,62.80
2023-11-05T11:14:21.011Z,62.67
2023-11-05T11:15:21.172Z,62.57
2023-11-05T11:16:21.398Z,62.57
2023-11-05T11:17:21.743Z,62.27
2023-11-05T11:18:21.899Z,62.47
2023-11-05T11:19:21.933Z,63.45
2023-11-05T11:20:22.107Z,62.04
2023-11-05T11:21:22.295Z,62.74
2023-11-05T11:22:22.482Z,62.64
2023-11-05T11:23:22.669Z,62.94
2023-11-05T11:24:22.854Z,62.24
2023-11-05T11:25:23.029Z,62.21
2023-11-05T11:26:23.180Z,63.14
2023-11-05T11:27:23.349Z,63.42
2023-11-05T11:28:23.560Z,62.04
2023-11-05T11:29:23.735Z,62.11
2023-11-05T11:30:23.899Z,62.81
2023-11-05T11:31:24.170Z,63.11
2023-11-05T11:32:24.269Z,62.61
2023-11-05T11:33:24.558Z,62.41
2023-11-05T11:34:24.663Z,62.31
2023-11-05T11:35:24.838Z,62.31
2023-11-05T11:36:25.463Z,61.91
2023-11-05T11:37:25.208Z,62.11
2023-11-05T11:38:25.355Z,62.01
2023-11-05T11:39:25.554Z,62.01
2023-11-05T11:40:25.724Z,61.81
2023-11-05T11:41:25.897Z,61.41
2023-11-05T11:42:26.080Z,61.01
2023-11-05T11:43:26.299Z,61.31
2023-11-05T11:44:26.475Z,61.41
2023-11-05T11:45:26.653Z,61.51
2023-11-05T11:46:26.855Z,61.48
2023-11-05T11:47:27.008Z,61.48
2023-11-05T11:48:27.704Z,61.18
2023-11-05T11:49:27.419Z,61.18
2023-11-05T11:50:27.540Z,60.48
2023-11-05T11:51:27.710Z,60.78
2023-11-05T11:52:27.927Z,60.08
2023-11-05T11:53:28.095Z,60.58
2023-11-05T11:54:28.321Z,60.58
2023-11-05T11:55:28.489Z,60.58
2023-11-05T11:56:28.639Z,60.68
2023-11-05T11:57:28.812Z,60.38
2023-11-05T11:58:29.435Z,60.28
2023-11-05T11:59:29.159Z,60.08
2023-11-05T12:00:29.340Z,60.38
2023-11-05T12:01:29.549Z,60.58
2023-11-05T12:02:29.782Z,60.68
2023-11-05T12:03:32.179Z,60.81
2023-11-05T12:04:30.093Z,60.71
2023-11-05T12:05:30.335Z,60.78
2023-11-05T12:06:30.412Z,60.88
2023-11-05T12:07:30.618Z,60.18
2023-11-05T12:08:30.777Z,60.48
2023-11-05T12:09:32.427Z,61.05
2023-11-05T12:10:31.154Z,63.35
2023-11-05T12:11:31.333Z,62.35
2023-11-05T12:12:31.524Z,62.75
2023-11-05T12:13:31.759Z,62.05
2023-11-05T12:14:31.926Z,61.65
2023-11-05T12:15:32.098Z,62.05
2023-11-05T12:16:32.286Z,61.25
2023-11-05T12:17:32.516Z,61.85
2023-11-05T12:18:32.753Z,62.15
2023-11-05T12:19:32.959Z,61.95
2023-11-05T12:20:33.013Z,62.35
2023-11-05T12:21:33.171Z,62.15
2023-11-05T12:22:33.376Z,60.95
2023-11-05T12:23:33.529Z,60.25
2023-11-05T12:24:33.702Z,60.45
2023-11-05T12:25:33.968Z,60.85
2023-11-05T12:26:34.076Z,60.85
2023-11-05T12:27:34.261Z,60.32
2023-11-05T12:28:34.495Z,60.02
2023-11-05T12:29:34.641Z,59.42
2023-11-05T12:30:34.833Z,59.02
2023-11-05T12:31:35.063Z,58.62
2023-11-05T12:32:35.365Z,58.82
2023-11-05T12:33:35.866Z,60.62
2023-11-05T12:34:35.596Z,58.42
2023-11-05T12:35:35.779Z,61.02
2023-11-05T12:36:35.921Z,61.52
2023-11-05T12:37:36.146Z,61.29
2023-11-05T12:38:36.549Z,59.69
2023-11-05T12:39:36.465Z,60.96
2023-11-05T12:40:36.701Z,62.76
2023-11-05T12:41:36.865Z,62.34
2023-11-05T12:42:37.056Z,60.24
2023-11-05T12:43:37.261Z,60.11
2023-11-05T12:44:37.431Z,59.70
2023-11-05T12:45:37.642Z,61.08
2023-11-05T12:46:37.823Z,60.58
2023-11-05T12:47:37.980Z,61.27
2023-11-05T12:48:38.216Z,61.18
2023-11-05T12:49:38.371Z,61.77
2023-11-05T12:50:38.551Z,60.97
2023-11-05T12:51:38.705Z,59.88
2023-11-05T12:52:38.917Z,60.17
2023-11-05T12:53:39.061Z,60.17
2023-11-05T12:54:39.238Z,58.98